createdAt,value
2019-02-19T00:00:05.261Z,8.40
2019-02-19T00:06:27.469Z,7.87
2019-02-19T00:09:28.594Z,7.10
2019-02-19T00:12:29.873Z,8.60
2019-02-19T00:15:30.760Z,7.37
2019-02-19T00:18:32.237Z,7.40
2019-02-19T00:24:36.160Z,9.23
2019-02-19T00:30:45.963Z,7.67
2019-02-19T00:33:47.479Z,8.60
2019-02-19T00:36:48.875Z,7.90
2019-02-19T00:39:49.870Z,7.40
2019-02-19T00:42:50.895Z,6.33
2019-02-19T00:45:52.270Z,6.53
2019-02-19T00:48:54.030Z,9.37
2019-02-19T00:51:55.367Z,6.70
2019-02-19T00:54:56.551Z,7.47
2019-02-19T00:57:46.190Z,6.60
2019-02-19T01:00:55.001Z,6.57
2019-02-19T01:03:56.528Z,7.70
2019-02-19T01:06:46.160Z,6.23
2019-02-19T01:13:09.459Z,6.60
2019-02-19T01:16:10.785Z,6.57
2019-02-19T01:19:12.391Z,6.30
2019-02-19T01:22:01.921Z,5.87
2019-02-19T01:24:51.636Z,6.33
2019-02-19T01:27:53.083Z,7.13
2019-02-19T01:30:59.059Z,6.57
2019-02-19T01:34:00.947Z,5.37
2019-02-19T01:37:02.890Z,5.53
2019-02-19T01:40:03.931Z,5.63
2019-02-19T01:43:05.491Z,6.40
2019-02-19T01:46:07.136Z,5.87
2019-02-19T01:49:08.470Z,5.83
2019-02-19T01:52:09.844Z,5.33
2019-02-19T01:55:11.084Z,5.23
2019-02-19T01:58:00.959Z,6.30
2019-02-19T02:04:24.460Z,7.90
2019-02-19T02:07:25.719Z,6.37
2019-02-19T02:10:27.251Z,6.77
2019-02-19T02:13:28.286Z,6.50
2019-02-19T02:16:29.284Z,5.92
2019-02-19T02:19:30.633Z,6.40
2019-02-19T02:22:31.746Z,5.40
2019-02-19T02:25:33.354Z,6.00
2019-02-19T02:28:41.283Z,6.47
2019-02-19T02:31:41.305Z,5.67
2019-02-19T02:34:42.494Z,5.73
2019-02-19T02:37:43.822Z,6.50
2019-02-19T02:40:44.731Z,7.22
2019-02-19T02:43:45.952Z,5.90
2019-02-19T02:46:35.621Z,6.73
2019-02-19T02:49:44.484Z,6.50
2019-02-19T02:52:45.693Z,6.07
2019-02-19T02:55:46.753Z,5.97
2019-02-19T02:58:53.815Z,5.93
2019-02-19T03:01:55.008Z,6.83
2019-02-19T03:04:54.923Z,6.90
2019-02-19T03:08:05.074Z,6.53
2019-02-19T03:11:06.331Z,6.80
2019-02-19T03:14:08.213Z,6.80
2019-02-19T03:17:09.315Z,6.15
2019-02-19T03:20:10.679Z,5.73
2019-02-19T03:23:11.975Z,6.20
2019-02-19T03:26:13.641Z,6.45
2019-02-19T03:32:21.704Z,6.20
2019-02-19T03:35:23.436Z,6.05
2019-02-19T03:38:25.174Z,6.28
2019-02-19T03:41:26.570Z,7.25
2019-02-19T03:44:16.365Z,6.12
2019-02-19T03:47:24.908Z,6.28
2019-02-19T03:50:24.718Z,6.47
2019-02-19T03:53:33.594Z,6.15
2019-02-19T03:56:41.390Z,7.27
2019-02-19T04:02:55.905Z,5.95
2019-02-19T04:05:45.588Z,4.93
2019-02-19T04:15:02.867Z,5.30
2019-02-19T04:18:04.581Z,5.40
2019-02-19T04:21:06.350Z,5.30
2019-02-19T04:24:07.386Z,6.72
2019-02-19T04:27:08.870Z,6.27
2019-02-19T04:30:15.536Z,6.15
2019-02-19T04:33:17.164Z,5.80
2019-02-19T04:36:06.995Z,6.08
2019-02-19T04:42:41.308Z,6.05
2019-02-19T04:45:42.944Z,6.12
2019-02-19T04:48:44.237Z,6.05
2019-02-19T04:51:49.098Z,5.60
2019-02-19T04:54:50.698Z,5.25
2019-02-19T04:57:51.974Z,5.72
2019-02-19T05:04:00.379Z,6.72
2019-02-19T05:07:01.617Z,6.12
2019-02-19T05:10:03.395Z,6.53
2019-02-19T05:13:05.305Z,6.72
2019-02-19T05:16:07.290Z,6.22
2019-02-19T05:19:08.309Z,5.95
2019-02-19T05:22:10.087Z,5.67
2019-02-19T05:25:11.082Z,5.92
2019-02-19T05:28:11.246Z,5.15
2019-02-19T05:34:19.732Z,6.30
2019-02-19T05:37:19.951Z,5.30
2019-02-19T05:40:21.098Z,5.60
2019-02-19T05:43:22.728Z,6.15
2019-02-19T05:46:24.406Z,5.60
2019-02-19T05:49:25.971Z,6.45
2019-02-19T05:52:27.795Z,6.17
2019-02-19T05:55:33.251Z,6.05
2019-02-19T05:58:34.479Z,6.10
2019-02-19T06:04:50.693Z,7.37
2019-02-19T06:07:51.777Z,5.87
2019-02-19T06:20:21.006Z,6.45
2019-02-19T06:23:22.064Z,8.00
2019-02-19T06:26:23.514Z,8.05
2019-02-19T06:29:24.458Z,6.60
2019-02-19T06:35:32.887Z,7.15
2019-02-19T06:38:34.666Z,8.63
2019-02-19T06:41:35.582Z,8.88
2019-02-19T06:44:37.571Z,7.62
2019-02-19T06:50:42.151Z,9.05
2019-02-19T06:57:05.224Z,7.10
2019-02-19T07:00:06.322Z,8.73
2019-02-19T07:06:10.890Z,7.37
2019-02-19T07:09:19.665Z,8.23
2019-02-19T07:12:20.651Z,8.87
2019-02-19T07:15:22.367Z,7.37
2019-02-19T07:18:24.159Z,7.23
2019-02-19T07:21:24.560Z,7.50
2019-02-19T07:24:25.974Z,9.27
2019-02-19T07:27:27.512Z,7.67
2019-02-19T07:30:29.034Z,8.30
2019-02-19T07:36:38.095Z,8.13
2019-02-19T07:39:39.491Z,7.57
2019-02-19T07:42:39.698Z,8.43
2019-02-19T07:45:48.491Z,8.70
2019-02-19T07:48:48.411Z,9.40
2019-02-19T07:51:57.270Z,8.70
2019-02-19T07:54:58.663Z,9.97
2019-02-19T07:57:59.621Z,8.80
2019-02-19T08:01:00.814Z,7.90
2019-02-19T08:07:09.605Z,9.17
2019-02-19T08:10:11.270Z,9.23
2019-02-19T08:13:12.423Z,9.83
2019-02-19T08:16:14.427Z,8.30
2019-02-19T08:19:04.139Z,10.93
2019-02-19T08:22:12.942Z,9.50
2019-02-19T08:25:13.778Z,9.97
2019-02-19T08:28:15.209Z,10.50
2019-02-19T08:31:16.548Z,10.77
2019-02-19T08:43:43.036Z,10.10
2019-02-19T08:46:44.494Z,9.90
2019-02-19T08:49:45.504Z,9.53
2019-02-19T08:52:47.407Z,11.67
2019-02-19T08:55:49.184Z,9.73
2019-02-19T08:58:50.884Z,9.50
2019-02-19T09:01:52.270Z,8.33
2019-02-19T09:11:10.024Z,8.80
2019-02-19T09:14:10.971Z,8.73
2019-02-19T09:17:13.054Z,9.10
2019-02-19T09:23:21.389Z,8.03
2019-02-19T09:26:22.829Z,10.67
2019-02-19T09:29:24.103Z,8.63
2019-02-19T09:32:25.163Z,9.30
2019-02-19T09:35:32.840Z,9.20
2019-02-19T09:38:34.234Z,8.40
2019-02-19T09:41:35.162Z,8.60
2019-02-19T09:44:37.237Z,8.00
2019-02-19T09:47:38.983Z,8.30
2019-02-19T09:50:40.167Z,7.77
2019-02-19T09:53:41.302Z,8.33
2019-02-19T09:56:48.224Z,8.50
2019-02-19T09:59:50.347Z,7.17
2019-02-19T10:02:52.078Z,6.80
2019-02-19T10:09:00.152Z,5.93
2019-02-19T10:12:01.594Z,6.17
2019-02-19T10:15:03.420Z,6.40
2019-02-19T10:18:10.271Z,6.27
2019-02-19T10:21:07.491Z,5.53
2019-02-19T10:24:08.540Z,6.13
2019-02-19T10:27:10.061Z,5.60
2019-02-19T10:30:11.861Z,6.60
2019-02-19T10:33:13.028Z,6.20
2019-02-19T10:36:20.321Z,6.20
2019-02-19T10:39:21.931Z,7.40
2019-02-19T10:42:23.293Z,8.70
2019-02-19T10:45:24.783Z,7.33
2019-02-19T10:48:25.884Z,7.70
2019-02-19T10:51:27.015Z,5.77
2019-02-19T10:54:27.939Z,6.17
2019-02-19T10:57:28.276Z,6.50
2019-02-19T11:00:29.466Z,7.60
2019-02-19T11:03:31.651Z,7.30
2019-02-19T11:06:39.120Z,6.80
2019-02-19T11:09:41.767Z,6.43
2019-02-19T11:12:42.650Z,6.40
2019-02-19T11:22:00.646Z,4.87
2019-02-19T11:25:01.698Z,4.70
2019-02-19T11:28:03.144Z,5.13
2019-02-19T11:31:05.046Z,4.73
2019-02-19T11:34:06.203Z,5.17
2019-02-19T11:37:14.037Z,4.10
2019-02-19T11:40:15.482Z,4.90
2019-02-19T11:43:17.071Z,4.97
2019-02-19T11:46:18.454Z,5.60
2019-02-19T11:49:19.985Z,4.60
2019-02-19T11:52:21.202Z,6.47
2019-02-19T11:55:22.908Z,4.70
2019-02-19T11:58:23.904Z,4.33
2019-02-19T12:01:25.266Z,4.83
2019-02-19T12:04:26.614Z,4.73
2019-02-19T12:10:34.824Z,5.07
2019-02-19T12:13:36.157Z,5.60
2019-02-19T12:16:37.651Z,4.87
2019-02-19T12:19:38.642Z,7.40
2019-02-19T12:22:39.862Z,5.13
2019-02-19T12:25:41.639Z,5.30
2019-02-19T12:28:31.231Z,6.20
2019-02-19T12:34:54.447Z,5.40
2019-02-19T12:38:01.927Z,5.87
2019-02-19T12:41:03.833Z,5.77
2019-02-19T12:44:04.687Z,5.17
2019-02-19T12:47:06.414Z,5.40
2019-02-19T12:50:08.187Z,6.00
2019-02-19T12:53:09.374Z,5.23
2019-02-19T12:56:10.456Z,6.40
2019-02-19T12:59:12.424Z,6.30
2019-02-19T13:02:16.999Z,5.77
2019-02-19T13:05:19.470Z,5.90
2019-02-19T13:08:29.700Z,6.30
2019-02-19T13:11:31.699Z,6.13
2019-02-19T13:14:33.794Z,5.60
2019-02-19T13:17:36.166Z,5.77
2019-02-19T13:20:38.158Z,6.50
2019-02-19T13:23:39.287Z,6.20
2019-02-19T13:26:40.497Z,5.47
2019-02-19T13:29:46.255Z,5.50
2019-02-19T13:32:47.953Z,6.70
2019-02-19T13:35:50.688Z,7.23
2019-02-19T13:45:01.440Z,6.27
2019-02-19T13:48:10.419Z,6.63
2019-02-19T13:51:12.475Z,5.90
2019-02-19T13:54:29.460Z,7.20
2019-02-19T13:57:31.369Z,6.87
2019-02-19T14:00:39.251Z,6.80
2019-02-19T14:03:41.782Z,6.43
2019-02-19T14:06:42.669Z,6.70
2019-02-19T14:12:51.738Z,6.70
2019-02-19T14:18:57.817Z,7.73
2019-02-19T14:22:17.618Z,7.30
2019-02-19T14:25:32.747Z,6.87
2019-02-19T14:28:41.066Z,6.83
2019-02-19T14:32:09.292Z,7.23
2019-02-19T14:35:29.729Z,6.90
2019-02-19T14:38:49.279Z,7.50
2019-02-19T14:45:08.247Z,7.87
2019-02-19T14:48:29.218Z,7.97
2019-02-19T14:55:27.717Z,7.70
2019-02-19T14:58:48.251Z,8.90
2019-02-19T15:02:08.987Z,7.77
2019-02-19T15:05:25.870Z,8.33
2019-02-19T15:08:46.487Z,7.80
2019-02-19T15:18:53.434Z,8.10
2019-02-19T15:22:13.864Z,8.40
2019-02-19T15:25:29.610Z,9.23
2019-02-19T15:32:25.037Z,7.87
2019-02-19T15:35:45.897Z,8.33
2019-02-19T15:42:23.936Z,7.60
2019-02-19T15:45:47.307Z,7.60
2019-02-19T15:52:40.476Z,8.00
2019-02-19T15:55:50.285Z,7.57
2019-02-19T15:59:10.423Z,7.67
2019-02-19T16:06:00.167Z,7.93
2019-02-19T16:16:06.278Z,8.13
2019-02-19T16:19:26.354Z,8.33
2019-02-19T16:25:52.764Z,7.17
2019-02-19T16:32:26.782Z,9.30
2019-02-19T16:35:38.138Z,8.90
2019-02-19T16:42:20.686Z,8.13
2019-02-19T16:45:41.042Z,9.50
2019-02-19T16:48:53.639Z,12.20
2019-02-19T16:52:02.632Z,9.87
2019-02-19T16:58:14.238Z,9.17
2019-02-19T17:01:42.463Z,9.30
2019-02-19T17:05:05.979Z,10.17
2019-02-19T17:08:26.384Z,9.73
2019-02-19T17:11:47.277Z,9.53
2019-02-19T17:15:10.705Z,9.90
2019-02-19T17:18:31.571Z,9.47
2019-02-19T17:25:10.544Z,10.20
2019-02-19T17:28:29.446Z,11.37
2019-02-19T17:35:23.630Z,13.50
2019-02-19T17:38:31.529Z,16.90
2019-02-19T17:41:39.402Z,21.23
2019-02-19T17:48:21.063Z,10.17
2019-02-19T17:51:35.066Z,11.23
2019-02-19T17:54:56.594Z,10.77
2019-02-19T17:58:12.809Z,10.13
2019-02-19T18:01:20.836Z,11.00
2019-02-19T18:04:47.486Z,10.87
2019-02-19T18:08:08.332Z,12.20
2019-02-19T18:11:25.797Z,17.33
2019-02-19T18:14:46.926Z,17.57
2019-02-19T18:21:02.818Z,11.93
2019-02-19T18:24:03.186Z,16.33
2019-02-19T18:27:11.978Z,12.87
2019-02-19T18:33:15.277Z,14.90
2019-02-19T18:39:51.631Z,15.60
2019-02-19T18:42:52.868Z,12.57
2019-02-19T18:45:53.793Z,12.13
2019-02-19T18:52:02.841Z,12.73
2019-02-19T18:55:04.408Z,14.40
2019-02-19T19:07:43.694Z,16.17
2019-02-19T19:10:45.142Z,16.80
2019-02-19T19:13:46.647Z,15.80
2019-02-19T19:16:48.418Z,14.40
2019-02-19T19:22:58.503Z,14.43
2019-02-19T19:26:00.108Z,14.50
2019-02-19T19:29:01.641Z,15.60
2019-02-19T19:32:03.511Z,14.40
2019-02-19T19:35:06.486Z,15.77
2019-02-19T19:38:08.367Z,13.50
2019-02-19T19:41:09.581Z,13.93
2019-02-19T19:44:11.932Z,13.37
2019-02-19T19:47:14.453Z,11.70
2019-02-19T19:53:27.899Z,10.27
2019-02-19T19:56:29.163Z,11.00
2019-02-19T19:59:30.771Z,12.93
2019-02-19T20:02:32.697Z,12.50
2019-02-19T20:05:34.951Z,14.83
2019-02-19T20:08:36.344Z,15.77
2019-02-19T20:11:38.126Z,13.60
2019-02-19T20:14:41.404Z,12.60
2019-02-19T20:17:42.897Z,18.20
2019-02-19T20:23:51.587Z,15.40
2019-02-19T20:26:53.107Z,14.50
2019-02-19T20:29:54.455Z,12.07
2019-02-19T20:32:55.768Z,14.17
2019-02-19T20:35:58.265Z,12.10
2019-02-19T20:38:59.937Z,11.70
2019-02-19T20:42:02.771Z,12.07
2019-02-19T20:48:37.284Z,8.20
2019-02-19T20:54:45.681Z,8.90
2019-02-19T20:57:47.588Z,7.67
2019-02-19T21:03:55.591Z,8.30
2019-02-19T21:06:56.861Z,8.90
2019-02-19T21:09:58.259Z,9.33
2019-02-19T21:12:58.585Z,8.53
2019-02-19T21:19:29.679Z,10.03
2019-02-19T21:25:37.842Z,9.70
2019-02-19T21:28:39.760Z,8.10
2019-02-19T21:31:41.596Z,10.20
2019-02-19T21:34:44.040Z,9.37
2019-02-19T21:37:45.854Z,9.10
2019-02-19T21:40:47.742Z,9.63
2019-02-19T21:43:48.765Z,10.23
2019-02-19T21:46:51.178Z,8.93
2019-02-19T21:49:52.880Z,8.97
2019-02-19T21:56:01.482Z,9.97
2019-02-19T21:59:02.986Z,11.53
2019-02-19T22:02:04.506Z,10.77
2019-02-19T22:05:06.514Z,18.10
2019-02-19T22:08:08.746Z,15.67
2019-02-19T22:11:09.779Z,12.83
2019-02-19T22:14:10.947Z,14.17
2019-02-19T22:17:12.543Z,14.93
2019-02-19T22:20:33.294Z,12.47
2019-02-19T22:26:41.374Z,11.57
2019-02-19T22:29:42.759Z,11.63
2019-02-19T22:32:43.808Z,10.83
2019-02-19T22:35:45.632Z,13.77
2019-02-19T22:38:48.164Z,11.57
2019-02-19T22:41:49.651Z,11.00
2019-02-19T22:44:51.294Z,11.13
2019-02-19T22:47:53.692Z,10.40
2019-02-19T22:50:55.690Z,11.00
2019-02-19T23:03:45.256Z,12.17
2019-02-19T23:06:46.954Z,12.00
2019-02-19T23:09:48.654Z,11.30
2019-02-19T23:12:50.871Z,12.20
2019-02-19T23:15:52.615Z,12.80
2019-02-19T23:18:54.091Z,11.33
2019-02-19T23:21:55.824Z,11.07
2019-02-19T23:25:03.183Z,10.80
2019-02-19T23:28:03.258Z,10.50
2019-02-19T23:31:03.635Z,10.60
2019-02-19T23:34:04.595Z,9.23
2019-02-19T23:37:16.605Z,11.90
2019-02-19T23:40:25.237Z,9.10
2019-02-19T23:43:26.247Z,9.90
2019-02-19T23:46:27.546Z,9.70
2019-02-19T23:49:28.850Z,9.83
2019-02-19T23:52:30.558Z,8.60
2019-02-19T23:55:38.191Z,9.57
2019-02-19T23:58:40.316Z,9.43
